sensor_id;sensor_type;location;lat;lon;timestamp;temperature;humidity
48666;DHT22;34452;50.796;4.994;2022-09-13T00:00:38;17.60;99.90
48666;DHT22;34452;50.796;4.994;2022-09-13T00:03:04;17.60;99.90
48666;DHT22;34452;50.796;4.994;2022-09-13T00:05:30;17.60;99.90
48666;DHT22;34452;50.796;4.994;2022-09-13T00:07:56;17.60;99.90
48666;DHT22;34452;50.796;4.994;2022-09-13T00:10:22;17.60;99.90
48666;DHT22;34452;50.796;4.994;2022-09-13T00:12:49;17.60;99.90
48666;DHT22;34452;50.796;4.994;2022-09-13T00:15:15;17.50;99.90
48666;DHT22;34452;50.796;4.994;2022-09-13T00:17:40;17.40;99.90
48666;DHT22;34452;50.796;4.994;2022-09-13T00:20:07;17.40;99.90
48666;DHT22;34452;50.796;4.994;2022-09-13T00:22:33;17.40;99.90
48666;DHT22;34452;50.796;4.994;2022-09-13T00:24:59;17.30;99.90
48666;DHT22;34452;50.796;4.994;2022-09-13T00:27:25;17.20;99.90
48666;DHT22;34452;50.796;4.994;2022-09-13T00:29:50;17.20;99.90
48666;DHT22;34452;50.796;4.994;2022-09-13T00:32:16;17.20;99.90
48666;DHT22;34452;50.796;4.994;2022-09-13T00:34:42;17.10;99.90
48666;DHT22;34452;50.796;4.994;2022-09-13T00:37:08;17.10;99.90
48666;DHT22;34452;50.796;4.994;2022-09-13T00:39:34;17.10;99.90
48666;DHT22;34452;50.796;4.994;2022-09-13T00:42:00;17.10;99.90
48666;DHT22;34452;50.796;4.994;2022-09-13T00:47:11;17.20;99.90
48666;DHT22;34452;50.796;4.994;2022-09-13T00:49:41;17.20;99.90
48666;DHT22;34452;50.796;4.994;2022-09-13T00:52:10;17.30;99.90
48666;DHT22;34452;50.796;4.994;2022-09-13T00:54:43;17.20;99.90
48666;DHT22;34452;50.796;4.994;2022-09-13T00:57:11;17.20;99.90
48666;DHT22;34452;50.796;4.994;2022-09-13T00:59:42;17.20;99.90
48666;DHT22;34452;50.796;4.994;2022-09-13T01:02:09;17.30;99.90
48666;DHT22;34452;50.796;4.994;2022-09-13T01:04:35;17.20;99.90
48666;DHT22;34452;50.796;4.994;2022-09-13T01:07:05;17.20;99.90
48666;DHT22;34452;50.796;4.994;2022-09-13T01:09:31;17.20;99.90
48666;DHT22;34452;50.796;4.994;2022-09-13T01:14:46;17.20;99.90
48666;DHT22;34452;50.796;4.994;2022-09-13T01:17:12;17.20;99.90
48666;DHT22;34452;50.796;4.994;2022-09-13T01:19:38;17.10;99.90
48666;DHT22;34452;50.796;4.994;2022-09-13T01:25:25;17.10;99.90
48666;DHT22;34452;50.796;4.994;2022-09-13T01:30:46;17.00;99.90
48666;DHT22;34452;50.796;4.994;2022-09-13T01:33:37;17.00;99.90
48666;DHT22;34452;50.796;4.994;2022-09-13T01:39:04;17.20;99.90
48666;DHT22;34452;50.796;4.994;2022-09-13T01:41:54;17.30;99.90
48666;DHT22;34452;50.796;4.994;2022-09-13T01:52:56;17.50;99.90
48666;DHT22;34452;50.796;4.994;2022-09-13T01:58:18;17.50;99.90
48666;DHT22;34452;50.796;4.994;2022-09-13T02:00:55;17.60;99.90
48666;DHT22;34452;50.796;4.994;2022-09-13T02:03:30;17.60;99.90
48666;DHT22;34452;50.796;4.994;2022-09-13T02:06:04;17.60;99.90
48666;DHT22;34452;50.796;4.994;2022-09-13T02:08:46;17.70;99.90
48666;DHT22;34452;50.796;4.994;2022-09-13T02:11:15;17.70;99.90
48666;DHT22;34452;50.796;4.994;2022-09-13T02:16:33;17.70;99.90
48666;DHT22;34452;50.796;4.994;2022-09-13T02:19:07;17.80;99.90
48666;DHT22;34452;50.796;4.994;2022-09-13T02:21:37;17.80;99.90
48666;DHT22;34452;50.796;4.994;2022-09-13T02:24:09;17.80;99.90
48666;DHT22;34452;50.796;4.994;2022-09-13T02:26:37;17.70;99.90
48666;DHT22;34452;50.796;4.994;2022-09-13T02:29:07;17.70;99.90
48666;DHT22;34452;50.796;4.994;2022-09-13T02:31:37;17.80;99.90
48666;DHT22;34452;50.796;4.994;2022-09-13T02:34:11;17.80;99.90
48666;DHT22;34452;50.796;4.994;2022-09-13T02:36:39;17.80;99.90
48666;DHT22;34452;50.796;4.994;2022-09-13T02:39:12;17.80;99.90
48666;DHT22;34452;50.796;4.994;2022-09-13T02:44:37;17.80;99.90
48666;DHT22;34452;50.796;4.994;2022-09-13T02:58:33;17.70;99.90
48666;DHT22;34452;50.796;4.994;2022-09-13T03:01:03;17.70;99.90
48666;DHT22;34452;50.796;4.994;2022-09-13T03:03:28;17.70;99.90
48666;DHT22;34452;50.796;4.994;2022-09-13T03:05:54;17.80;99.90
48666;DHT22;34452;50.796;4.994;2022-09-13T03:08:21;17.80;99.90
48666;DHT22;34452;50.796;4.994;2022-09-13T03:10:58;17.80;99.90
48666;DHT22;34452;50.796;4.994;2022-09-13T03:13:35;17.80;99.90
48666;DHT22;34452;50.796;4.994;2022-09-13T03:22:11;17.90;99.90
48666;DHT22;34452;50.796;4.994;2022-09-13T03:27:51;17.90;99.90
48666;DHT22;34452;50.796;4.994;2022-09-13T03:30:20;17.80;99.90
48666;DHT22;34452;50.796;4.994;2022-09-13T03:32:50;17.80;99.90
48666;DHT22;34452;50.796;4.994;2022-09-13T03:35:38;17.80;99.90
48666;DHT22;34452;50.796;4.994;2022-09-13T03:41:08;17.80;99.90
48666;DHT22;34452;50.796;4.994;2022-09-13T03:46:27;17.80;99.90
48666;DHT22;34452;50.796;4.994;2022-09-13T03:48:57;17.90;99.90
48666;DHT22;34452;50.796;4.994;2022-09-13T03:51:25;17.80;99.90
48666;DHT22;34452;50.796;4.994;2022-09-13T03:53:54;17.80;99.90
48666;DHT22;34452;50.796;4.994;2022-09-13T03:56:23;17.80;99.90
48666;DHT22;34452;50.796;4.994;2022-09-13T03:58:49;17.90;99.90
48666;DHT22;34452;50.796;4.994;2022-09-13T04:01:19;17.90;99.90
48666;DHT22;34452;50.796;4.994;2022-09-13T04:03:45;17.90;99.90
48666;DHT22;34452;50.796;4.994;2022-09-13T04:06:10;17.90;99.90
48666;DHT22;34452;50.796;4.994;2022-09-13T04:08:36;17.90;99.90
48666;DHT22;34452;50.796;4.994;2022-09-13T04:11:02;17.80;99.90
48666;DHT22;34452;50.796;4.994;2022-09-13T04:13:28;17.80;99.90
48666;DHT22;34452;50.796;4.994;2022-09-13T04:15:53;17.80;99.90
48666;DHT22;34452;50.796;4.994;2022-09-13T04:18:19;17.80;99.90
48666;DHT22;34452;50.796;4.994;2022-09-13T04:20:52;17.80;99.90
48666;DHT22;34452;50.796;4.994;2022-09-13T04:23:18;17.70;99.90
48666;DHT22;34452;50.796;4.994;2022-09-13T04:25:44;17.70;99.90
48666;DHT22;34452;50.796;4.994;2022-09-13T04:28:10;17.70;99.90
48666;DHT22;34452;50.796;4.994;2022-09-13T04:30:36;17.70;99.90
48666;DHT22;34452;50.796;4.994;2022-09-13T04:33:02;17.70;99.90
48666;DHT22;34452;50.796;4.994;2022-09-13T04:35:27;17.60;99.90
48666;DHT22;34452;50.796;4.994;2022-09-13T04:37:55;17.60;99.90
48666;DHT22;34452;50.796;4.994;2022-09-13T04:40:23;17.60;99.90
48666;DHT22;34452;50.796;4.994;2022-09-13T04:42:49;17.60;99.90
48666;DHT22;34452;50.796;4.994;2022-09-13T04:45:14;17.60;99.90
48666;DHT22;34452;50.796;4.994;2022-09-13T04:47:40;17.60;99.90
48666;DHT22;34452;50.796;4.994;2022-09-13T04:50:06;17.60;99.90
48666;DHT22;34452;50.796;4.994;2022-09-13T04:52:32;17.60;99.90
48666;DHT22;34452;50.796;4.994;2022-09-13T04:54:58;17.60;99.90
48666;DHT22;34452;50.796;4.994;2022-09-13T04:57:26;17.60;99.90
48666;DHT22;34452;50.796;4.994;2022-09-13T04:59:52;17.60;99.90
48666;DHT22;34452;50.796;4.994;2022-09-13T05:02:18;17.50;99.90
48666;DHT22;34452;50.796;4.994;2022-09-13T05:04:44;17.50;99.90
48666;DHT22;34452;50.796;4.994;2022-09-13T05:07:09;17.50;99.90
48666;DHT22;34452;50.796;4.994;2022-09-13T05:09:35;17.60;99.90
48666;DHT22;34452;50.796;4.994;2022-09-13T05:12:01;17.60;99.90
48666;DHT22;34452;50.796;4.994;2022-09-13T05:14:27;17.50;99.90
48666;DHT22;34452;50.796;4.994;2022-09-13T05:16:52;17.50;99.90
48666;DHT22;34452;50.796;4.994;2022-09-13T05:19:18;17.60;99.90
48666;DHT22;34452;50.796;4.994;2022-09-13T05:21:44;17.50;99.90
48666;DHT22;34452;50.796;4.994;2022-09-13T05:24:09;17.50;99.90
48666;DHT22;34452;50.796;4.994;2022-09-13T05:26:36;17.60;99.90
48666;DHT22;34452;50.796;4.994;2022-09-13T05:29:03;17.60;99.90
48666;DHT22;34452;50.796;4.994;2022-09-13T05:31:31;17.60;99.90
48666;DHT22;34452;50.796;4.994;2022-09-13T05:34:01;17.60;99.90
48666;DHT22;34452;50.796;4.994;2022-09-13T05:36:28;17.60;99.90
48666;DHT22;34452;50.796;4.994;2022-09-13T05:38:54;17.60;99.90
48666;DHT22;34452;50.796;4.994;2022-09-13T05:41:20;17.60;99.90
48666;DHT22;34452;50.796;4.994;2022-09-13T05:43:46;17.60;99.90
48666;DHT22;34452;50.796;4.994;2022-09-13T05:46:14;17.60;99.90
48666;DHT22;34452;50.796;4.994;2022-09-13T05:48:40;17.60;99.90
48666;DHT22;34452;50.796;4.994;2022-09-13T05:51:07;17.60;99.90
48666;DHT22;34452;50.796;4.994;2022-09-13T05:53:34;17.70;99.90
48666;DHT22;34452;50.796;4.994;2022-09-13T05:55:59;17.70;99.90
48666;DHT22;34452;50.796;4.994;2022-09-13T05:58:25;17.70;99.90
48666;DHT22;34452;50.796;4.994;2022-09-13T06:00:53;17.70;99.90
48666;DHT22;34452;50.796;4.994;2022-09-13T06:03:20;17.70;99.90
48666;DHT22;34452;50.796;4.994;2022-09-13T06:05:45;17.70;99.90
48666;DHT22;34452;50.796;4.994;2022-09-13T06:08:11;17.80;99.90
48666;DHT22;34452;50.796;4.994;2022-09-13T06:10:37;17.80;99.90
48666;DHT22;34452;50.796;4.994;2022-09-13T06:13:02;17.80;99.90
48666;DHT22;34452;50.796;4.994;2022-09-13T06:15:28;17.80;99.90
48666;DHT22;34452;50.796;4.994;2022-09-13T06:17:54;17.80;99.90
48666;DHT22;34452;50.796;4.994;2022-09-13T06:20:19;17.80;99.90
48666;DHT22;34452;50.796;4.994;2022-09-13T06:22:47;17.80;99.90
48666;DHT22;34452;50.796;4.994;2022-09-13T06:25:13;17.90;99.90
48666;DHT22;34452;50.796;4.994;2022-09-13T06:27:38;17.90;99.90
48666;DHT22;34452;50.796;4.994;2022-09-13T06:30:04;17.90;99.90
48666;DHT22;34452;50.796;4.994;2022-09-13T06:32:33;17.90;99.90
48666;DHT22;34452;50.796;4.994;2022-09-13T06:34:59;17.90;99.90
48666;DHT22;34452;50.796;4.994;2022-09-13T06:37:25;17.90;99.90
48666;DHT22;34452;50.796;4.994;2022-09-13T06:39:51;18.00;99.90
48666;DHT22;34452;50.796;4.994;2022-09-13T06:42:16;18.00;99.90
48666;DHT22;34452;50.796;4.994;2022-09-13T06:44:42;18.00;99.90
48666;DHT22;34452;50.796;4.994;2022-09-13T06:47:11;18.00;99.90
48666;DHT22;34452;50.796;4.994;2022-09-13T06:49:37;18.10;99.90
48666;DHT22;34452;50.796;4.994;2022-09-13T06:52:03;18.10;99.90
48666;DHT22;34452;50.796;4.994;2022-09-13T06:54:29;18.10;99.90
48666;DHT22;34452;50.796;4.994;2022-09-13T06:56:55;18.10;99.90
48666;DHT22;34452;50.796;4.994;2022-09-13T06:59:20;18.20;99.90
48666;DHT22;34452;50.796;4.994;2022-09-13T07:01:46;18.20;99.90
48666;DHT22;34452;50.796;4.994;2022-09-13T07:04:14;18.20;99.90
48666;DHT22;34452;50.796;4.994;2022-09-13T07:06:43;18.30;99.90
48666;DHT22;34452;50.796;4.994;2022-09-13T07:09:12;18.30;99.90
48666;DHT22;34452;50.796;4.994;2022-09-13T07:11:39;18.40;99.90
48666;DHT22;34452;50.796;4.994;2022-09-13T07:14:06;18.40;99.90
48666;DHT22;34452;50.796;4.994;2022-09-13T07:16:35;18.40;99.90
48666;DHT22;34452;50.796;4.994;2022-09-13T07:19:20;18.50;99.90
48666;DHT22;34452;50.796;4.994;2022-09-13T07:21:48;18.60;99.90
48666;DHT22;34452;50.796;4.994;2022-09-13T07:24:15;18.60;99.90
48666;DHT22;34452;50.796;4.994;2022-09-13T07:26:41;18.60;99.90
48666;DHT22;34452;50.796;4.994;2022-09-13T07:29:10;18.70;99.90
48666;DHT22;34452;50.796;4.994;2022-09-13T07:31:38;18.80;99.90
48666;DHT22;34452;50.796;4.994;2022-09-13T07:34:06;18.80;99.90
48666;DHT22;34452;50.796;4.994;2022-09-13T07:36:36;18.90;99.90
48666;DHT22;34452;50.796;4.994;2022-09-13T07:39:02;19.00;99.90
48666;DHT22;34452;50.796;4.994;2022-09-13T07:41:29;19.10;99.90
48666;DHT22;34452;50.796;4.994;2022-09-13T07:43:56;19.20;99.90
48666;DHT22;34452;50.796;4.994;2022-09-13T07:46:24;19.20;99.90
48666;DHT22;34452;50.796;4.994;2022-09-13T07:48:52;19.30;99.90
48666;DHT22;34452;50.796;4.994;2022-09-13T07:51:21;19.30;99.90
48666;DHT22;34452;50.796;4.994;2022-09-13T07:53:48;19.40;99.90
48666;DHT22;34452;50.796;4.994;2022-09-13T07:56:16;19.40;99.90
48666;DHT22;34452;50.796;4.994;2022-09-13T07:58:45;19.50;99.90
48666;DHT22;34452;50.796;4.994;2022-09-13T08:01:16;19.60;99.90
48666;DHT22;34452;50.796;4.994;2022-09-13T08:03:43;19.60;99.90
48666;DHT22;34452;50.796;4.994;2022-09-13T08:06:09;19.70;99.90
48666;DHT22;34452;50.796;4.994;2022-09-13T08:08:36;19.70;99.90
48666;DHT22;34452;50.796;4.994;2022-09-13T08:11:04;19.80;99.90
48666;DHT22;34452;50.796;4.994;2022-09-13T08:13:30;19.80;99.90
48666;DHT22;34452;50.796;4.994;2022-09-13T08:16:17;19.90;99.90
48666;DHT22;34452;50.796;4.994;2022-09-13T08:18:44;19.90;99.90
48666;DHT22;34452;50.796;4.994;2022-09-13T08:21:10;20.00;99.90
48666;DHT22;34452;50.796;4.994;2022-09-13T08:23:36;20.10;99.90
48666;DHT22;34452;50.796;4.994;2022-09-13T08:26:02;20.20;99.90
48666;DHT22;34452;50.796;4.994;2022-09-13T08:28:29;20.20;99.90
48666;DHT22;34452;50.796;4.994;2022-09-13T08:31:01;20.30;99.90
48666;DHT22;34452;50.796;4.994;2022-09-13T08:33:27;20.30;99.90
48666;DHT22;34452;50.796;4.994;2022-09-13T08:35:53;20.40;99.90
48666;DHT22;34452;50.796;4.994;2022-09-13T08:38:20;20.50;99.90
48666;DHT22;34452;50.796;4.994;2022-09-13T08:40:52;20.70;99.90
48666;DHT22;34452;50.796;4.994;2022-09-13T08:46:05;21.00;99.90
48666;DHT22;34452;50.796;4.994;2022-09-13T08:48:35;21.10;99.90
48666;DHT22;34452;50.796;4.994;2022-09-13T08:51:07;21.20;99.90
48666;DHT22;34452;50.796;4.994;2022-09-13T08:53:44;21.20;99.90
48666;DHT22;34452;50.796;4.994;2022-09-13T08:56:19;21.30;99.90
48666;DHT22;34452;50.796;4.994;2022-09-13T09:01:40;21.40;99.90
48666;DHT22;34452;50.796;4.994;2022-09-13T09:07:10;21.50;99.90
48666;DHT22;34452;50.796;4.994;2022-09-13T09:09:53;21.60;99.90
48666;DHT22;34452;50.796;4.994;2022-09-13T09:15:00;21.70;99.90
48666;DHT22;34452;50.796;4.994;2022-09-13T09:17:33;21.70;99.90
48666;DHT22;34452;50.796;4.994;2022-09-13T09:20:30;21.70;99.90
48666;DHT22;34452;50.796;4.994;2022-09-13T09:23:00;21.80;99.90
48666;DHT22;34452;50.796;4.994;2022-09-13T09:25:26;21.80;99.90
48666;DHT22;34452;50.796;4.994;2022-09-13T09:27:53;21.90;99.90
48666;DHT22;34452;50.796;4.994;2022-09-13T09:30:19;22.00;99.90
48666;DHT22;34452;50.796;4.994;2022-09-13T09:35:50;22.00;99.90
48666;DHT22;34452;50.796;4.994;2022-09-13T09:41:43;22.20;99.90
48666;DHT22;34452;50.796;4.994;2022-09-13T09:44:26;22.30;99.90
48666;DHT22;34452;50.796;4.994;2022-09-13T09:46:57;22.30;99.90
48666;DHT22;34452;50.796;4.994;2022-09-13T10:00:27;22.70;99.90
48666;DHT22;34452;50.796;4.994;2022-09-13T10:02:57;22.60;99.90
48666;DHT22;34452;50.796;4.994;2022-09-13T10:05:25;22.70;99.90
48666;DHT22;34452;50.796;4.994;2022-09-13T10:07:56;22.70;99.90
48666;DHT22;34452;50.796;4.994;2022-09-13T10:10:27;22.70;99.90
48666;DHT22;34452;50.796;4.994;2022-09-13T10:12:56;22.70;99.90
48666;DHT22;34452;50.796;4.994;2022-09-13T10:15:25;22.80;99.90
48666;DHT22;34452;50.796;4.994;2022-09-13T10:18:13;22.90;99.90
48666;DHT22;34452;50.796;4.994;2022-09-13T10:20:40;23.00;99.90
48666;DHT22;34452;50.796;4.994;2022-09-13T10:26:11;23.40;99.90
48666;DHT22;34452;50.796;4.994;2022-09-13T10:31:44;23.50;99.90
48666;DHT22;34452;50.796;4.994;2022-09-13T10:37:03;23.40;99.90
48666;DHT22;34452;50.796;4.994;2022-09-13T10:39:33;23.30;99.90
48666;DHT22;34452;50.796;4.994;2022-09-13T10:42:03;23.30;99.90
48666;DHT22;34452;50.796;4.994;2022-09-13T10:47:17;23.20;99.90
48666;DHT22;34452;50.796;4.994;2022-09-13T10:49:47;23.10;99.90
48666;DHT22;34452;50.796;4.994;2022-09-13T11:01:00;22.90;99.90
48666;DHT22;34452;50.796;4.994;2022-09-13T11:03:41;23.00;99.90
48666;DHT22;34452;50.796;4.994;2022-09-13T11:06:29;23.00;99.90
48666;DHT22;34452;50.796;4.994;2022-09-13T11:12:16;23.20;99.90
48666;DHT22;34452;50.796;4.994;2022-09-13T11:35:03;22.90;99.90
48666;DHT22;34452;50.796;4.994;2022-09-13T11:37:43;23.00;99.90
48666;DHT22;34452;50.796;4.994;2022-09-13T11:42:57;23.10;99.90
48666;DHT22;34452;50.796;4.994;2022-09-13T11:45:28;23.20;99.90
48666;DHT22;34452;50.796;4.994;2022-09-13T11:56:26;23.60;99.90
48666;DHT22;34452;50.796;4.994;2022-09-13T11:58:54;23.60;99.90
48666;DHT22;34452;50.796;4.994;2022-09-13T12:01:37;23.60;99.90
48666;DHT22;34452;50.796;4.994;2022-09-13T12:06:52;23.50;99.90
48666;DHT22;34452;50.796;4.994;2022-09-13T12:09:21;23.40;99.90
48666;DHT22;34452;50.796;4.994;2022-09-13T12:11:53;23.40;99.90
48666;DHT22;34452;50.796;4.994;2022-09-13T12:14:25;23.30;99.90
48666;DHT22;34452;50.796;4.994;2022-09-13T12:16:57;23.20;99.90
48666;DHT22;34452;50.796;4.994;2022-09-13T12:19:44;23.30;99.90
48666;DHT22;34452;50.796;4.994;2022-09-13T12:22:12;23.30;99.90
48666;DHT22;34452;50.796;4.994;2022-09-13T12:24:47;23.30;99.90
48666;DHT22;34452;50.796;4.994;2022-09-13T12:27:33;23.30;99.90
48666;DHT22;34452;50.796;4.994;2022-09-13T12:32:30;23.20;99.90
48666;DHT22;34452;50.796;4.994;2022-09-13T12:53:18;22.90;99.90
48666;DHT22;34452;50.796;4.994;2022-09-13T13:01:10;22.70;99.90
48666;DHT22;34452;50.796;4.994;2022-09-13T13:04:00;22.70;99.90
48666;DHT22;34452;50.796;4.994;2022-09-13T13:06:47;22.60;99.90
48666;DHT22;34452;50.796;4.994;2022-09-13T13:23:43;22.70;99.90
48666;DHT22;34452;50.796;4.994;2022-09-13T13:26:42;22.70;99.90
48666;DHT22;34452;50.796;4.994;2022-09-13T13:29:17;22.60;99.90
48666;DHT22;34452;50.796;4.994;2022-09-13T13:32:03;22.70;99.90
48666;DHT22;34452;50.796;4.994;2022-09-13T13:39:38;22.70;99.90
48666;DHT22;34452;50.796;4.994;2022-09-13T13:42:26;22.60;99.90
48666;DHT22;34452;50.796;4.994;2022-09-13T13:49:50;22.50;99.90
48666;DHT22;34452;50.796;4.994;2022-09-13T13:55:27;22.50;99.90
48666;DHT22;34452;50.796;4.994;2022-09-13T14:00:59;22.40;99.90
48666;DHT22;34452;50.796;4.994;2022-09-13T14:06:37;22.40;99.90
48666;DHT22;34452;50.796;4.994;2022-09-13T14:09:37;22.40;99.90
48666;DHT22;34452;50.796;4.994;2022-09-13T14:12:19;22.30;99.90
48666;DHT22;34452;50.796;4.994;2022-09-13T14:15:06;22.30;99.90
48666;DHT22;34452;50.796;4.994;2022-09-13T14:17:54;22.30;99.90
48666;DHT22;34452;50.796;4.994;2022-09-13T14:20:26;22.30;99.90
48666;DHT22;34452;50.796;4.994;2022-09-13T14:23:11;22.20;99.90
48666;DHT22;34452;50.796;4.994;2022-09-13T14:25:37;22.20;99.90
48666;DHT22;34452;50.796;4.994;2022-09-13T14:28:05;22.20;99.90
48666;DHT22;34452;50.796;4.994;2022-09-13T14:30:36;22.10;99.90
48666;DHT22;34452;50.796;4.994;2022-09-13T14:33:03;22.10;99.90
48666;DHT22;34452;50.796;4.994;2022-09-13T14:35:42;22.10;99.90
48666;DHT22;34452;50.796;4.994;2022-09-13T14:38:27;22.00;99.90
48666;DHT22;34452;50.796;4.994;2022-09-13T14:41:02;22.00;99.90
48666;DHT22;34452;50.796;4.994;2022-09-13T14:43:29;21.90;99.90
48666;DHT22;34452;50.796;4.994;2022-09-13T14:46:05;21.90;99.90
48666;DHT22;34452;50.796;4.994;2022-09-13T14:51:22;21.80;99.90
48666;DHT22;34452;50.796;4.994;2022-09-13T14:56:40;21.80;99.90
48666;DHT22;34452;50.796;4.994;2022-09-13T14:59:16;21.70;99.90
48666;DHT22;34452;50.796;4.994;2022-09-13T15:01:44;21.70;99.90
48666;DHT22;34452;50.796;4.994;2022-09-13T15:04:10;21.70;99.90
48666;DHT22;34452;50.796;4.994;2022-09-13T15:06:38;21.70;99.90
48666;DHT22;34452;50.796;4.994;2022-09-13T15:09:29;21.60;99.90
48666;DHT22;34452;50.796;4.994;2022-09-13T15:11:59;21.50;99.90
48666;DHT22;34452;50.796;4.994;2022-09-13T15:14:44;21.50;99.90
48666;DHT22;34452;50.796;4.994;2022-09-13T15:17:12;21.50;99.90
48666;DHT22;34452;50.796;4.994;2022-09-13T15:22:41;21.50;99.90
48666;DHT22;34452;50.796;4.994;2022-09-13T15:25:20;21.40;99.90
48666;DHT22;34452;50.796;4.994;2022-09-13T15:27:48;21.30;99.90
48666;DHT22;34452;50.796;4.994;2022-09-13T15:30:36;21.20;99.90
48666;DHT22;34452;50.796;4.994;2022-09-13T15:33:22;21.20;99.90
48666;DHT22;34452;50.796;4.994;2022-09-13T15:35:50;21.10;99.90
48666;DHT22;34452;50.796;4.994;2022-09-13T15:38:28;21.00;99.90
48666;DHT22;34452;50.796;4.994;2022-09-13T15:41:17;21.00;99.90
48666;DHT22;34452;50.796;4.994;2022-09-13T15:43:43;21.00;99.90
48666;DHT22;34452;50.796;4.994;2022-09-13T15:46:27;21.00;99.90
48666;DHT22;34452;50.796;4.994;2022-09-13T15:48:58;21.00;99.90
48666;DHT22;34452;50.796;4.994;2022-09-13T15:51:24;20.90;99.90
48666;DHT22;34452;50.796;4.994;2022-09-13T15:53:50;20.90;99.90
48666;DHT22;34452;50.796;4.994;2022-09-13T15:56:19;20.90;99.90
48666;DHT22;34452;50.796;4.994;2022-09-13T15:58:45;20.90;99.90
48666;DHT22;34452;50.796;4.994;2022-09-13T16:01:12;20.90;99.90
48666;DHT22;34452;50.796;4.994;2022-09-13T16:03:38;20.90;99.90
48666;DHT22;34452;50.796;4.994;2022-09-13T16:06:05;20.90;99.90
48666;DHT22;34452;50.796;4.994;2022-09-13T16:08:34;20.80;99.90
48666;DHT22;34452;50.796;4.994;2022-09-13T16:10:59;20.80;99.90
48666;DHT22;34452;50.796;4.994;2022-09-13T16:13:26;20.90;99.90
48666;DHT22;34452;50.796;4.994;2022-09-13T16:15:52;20.80;99.90
48666;DHT22;34452;50.796;4.994;2022-09-13T16:18:17;20.90;99.90
48666;DHT22;34452;50.796;4.994;2022-09-13T16:20:44;20.90;99.90
48666;DHT22;34452;50.796;4.994;2022-09-13T16:23:10;20.90;99.90
48666;DHT22;34452;50.796;4.994;2022-09-13T16:25:36;20.80;99.90
48666;DHT22;34452;50.796;4.994;2022-09-13T16:28:04;20.80;99.90
48666;DHT22;34452;50.796;4.994;2022-09-13T16:30:30;20.80;99.90
48666;DHT22;34452;50.796;4.994;2022-09-13T16:32:57;20.80;99.90
48666;DHT22;34452;50.796;4.994;2022-09-13T16:35:25;20.70;99.90
48666;DHT22;34452;50.796;4.994;2022-09-13T16:37:52;20.60;99.90
48666;DHT22;34452;50.796;4.994;2022-09-13T16:43:02;20.60;99.90
48666;DHT22;34452;50.796;4.994;2022-09-13T16:45:28;20.60;99.90
48666;DHT22;34452;50.796;4.994;2022-09-13T16:47:54;20.60;99.90
48666;DHT22;34452;50.796;4.994;2022-09-13T16:50:19;20.60;99.90
48666;DHT22;34452;50.796;4.994;2022-09-13T16:52:45;20.70;99.90
48666;DHT22;34452;50.796;4.994;2022-09-13T16:55:11;20.60;99.90
48666;DHT22;34452;50.796;4.994;2022-09-13T16:57:37;20.60;99.90
48666;DHT22;34452;50.796;4.994;2022-09-13T17:00:05;20.50;99.90
48666;DHT22;34452;50.796;4.994;2022-09-13T17:02:33;20.50;99.90
48666;DHT22;34452;50.796;4.994;2022-09-13T17:04:59;20.40;99.90
48666;DHT22;34452;50.796;4.994;2022-09-13T17:07:25;20.20;99.90
48666;DHT22;34452;50.796;4.994;2022-09-13T17:09:51;20.20;99.90
48666;DHT22;34452;50.796;4.994;2022-09-13T17:12:18;20.10;99.90
48666;DHT22;34452;50.796;4.994;2022-09-13T17:14:44;20.10;99.90
48666;DHT22;34452;50.796;4.994;2022-09-13T17:17:21;20.00;99.90
48666;DHT22;34452;50.796;4.994;2022-09-13T17:19:47;20.00;99.90
48666;DHT22;34452;50.796;4.994;2022-09-13T17:22:13;20.00;99.90
48666;DHT22;34452;50.796;4.994;2022-09-13T17:24:39;20.00;99.90
48666;DHT22;34452;50.796;4.994;2022-09-13T17:27:05;20.00;99.90
48666;DHT22;34452;50.796;4.994;2022-09-13T17:29:32;19.90;99.90
48666;DHT22;34452;50.796;4.994;2022-09-13T17:31:59;19.90;99.90
48666;DHT22;34452;50.796;4.994;2022-09-13T17:34:25;19.90;99.90
48666;DHT22;34452;50.796;4.994;2022-09-13T17:36:52;19.80;99.90
48666;DHT22;34452;50.796;4.994;2022-09-13T17:39:19;19.80;99.90
48666;DHT22;34452;50.796;4.994;2022-09-13T17:41:45;19.70;99.90
48666;DHT22;34452;50.796;4.994;2022-09-13T17:44:13;19.70;99.90
48666;DHT22;34452;50.796;4.994;2022-09-13T17:46:39;19.70;99.90
48666;DHT22;34452;50.796;4.994;2022-09-13T17:49:05;19.70;99.90
48666;DHT22;34452;50.796;4.994;2022-09-13T17:51:32;19.60;99.90
48666;DHT22;34452;50.796;4.994;2022-09-13T17:54:01;19.50;99.90
48666;DHT22;34452;50.796;4.994;2022-09-13T17:56:29;19.50;99.90
48666;DHT22;34452;50.796;4.994;2022-09-13T17:59:01;19.50;99.90
48666;DHT22;34452;50.796;4.994;2022-09-13T18:01:28;19.50;99.90
48666;DHT22;34452;50.796;4.994;2022-09-13T18:03:53;19.50;99.90
48666;DHT22;34452;50.796;4.994;2022-09-13T18:06:20;19.50;99.90
48666;DHT22;34452;50.796;4.994;2022-09-13T18:08:46;19.50;99.90
48666;DHT22;34452;50.796;4.994;2022-09-13T18:11:14;19.50;99.90
48666;DHT22;34452;50.796;4.994;2022-09-13T18:13:43;19.50;99.90
48666;DHT22;34452;50.796;4.994;2022-09-13T18:16:12;19.40;99.90
48666;DHT22;34452;50.796;4.994;2022-09-13T18:18:39;19.40;99.90
48666;DHT22;34452;50.796;4.994;2022-09-13T18:21:05;19.40;99.90
48666;DHT22;34452;50.796;4.994;2022-09-13T18:23:32;19.50;99.90
48666;DHT22;34452;50.796;4.994;2022-09-13T18:26:02;19.50;99.90
48666;DHT22;34452;50.796;4.994;2022-09-13T18:28:29;19.40;99.90
48666;DHT22;34452;50.796;4.994;2022-09-13T18:30:59;19.40;99.90
48666;DHT22;34452;50.796;4.994;2022-09-13T18:33:26;19.30;99.90
48666;DHT22;34452;50.796;4.994;2022-09-13T18:36:12;19.30;99.90
48666;DHT22;34452;50.796;4.994;2022-09-13T18:38:48;19.30;99.90
48666;DHT22;34452;50.796;4.994;2022-09-13T18:41:18;19.30;99.90
48666;DHT22;34452;50.796;4.994;2022-09-13T18:43:45;19.20;99.90
48666;DHT22;34452;50.796;4.994;2022-09-13T18:46:13;19.20;99.90
48666;DHT22;34452;50.796;4.994;2022-09-13T18:48:42;19.10;99.90
48666;DHT22;34452;50.796;4.994;2022-09-13T18:51:10;19.10;99.90
48666;DHT22;34452;50.796;4.994;2022-09-13T18:53:36;19.10;99.90
48666;DHT22;34452;50.796;4.994;2022-09-13T18:56:04;19.10;99.90
48666;DHT22;34452;50.796;4.994;2022-09-13T18:58:32;19.10;99.90
48666;DHT22;34452;50.796;4.994;2022-09-13T19:01:00;19.20;99.90
48666;DHT22;34452;50.796;4.994;2022-09-13T19:03:26;19.10;99.90
48666;DHT22;34452;50.796;4.994;2022-09-13T19:05:52;19.10;99.90
48666;DHT22;34452;50.796;4.994;2022-09-13T19:08:17;19.10;99.90
48666;DHT22;34452;50.796;4.994;2022-09-13T19:10:43;19.00;99.90
48666;DHT22;34452;50.796;4.994;2022-09-13T19:13:09;19.10;99.90
48666;DHT22;34452;50.796;4.994;2022-09-13T19:15:35;19.00;99.90
48666;DHT22;34452;50.796;4.994;2022-09-13T19:18:01;19.00;99.90
48666;DHT22;34452;50.796;4.994;2022-09-13T19:20:26;19.00;99.90